createdAt,value
2023-02-14T00:01:51.915Z,1.03
2023-02-14T00:04:58.394Z,1.20
2023-02-14T00:08:05.230Z,1.23
2023-02-14T00:11:10.381Z,1.00
2023-02-14T00:14:33.554Z,1.20
2023-02-14T00:17:38.418Z,1.60
2023-02-14T00:20:43.895Z,1.10
2023-02-14T00:23:50.540Z,1.20
2023-02-14T00:26:56.217Z,1.10
2023-02-14T00:30:03.126Z,1.10
2023-02-14T00:33:08.408Z,1.00
2023-02-14T00:36:14.386Z,1.30
2023-02-14T00:39:21.608Z,1.03
2023-02-14T00:42:29.142Z,1.20
2023-02-14T00:45:34.247Z,1.20
2023-02-14T00:48:39.354Z,1.10
2023-02-14T00:51:44.587Z,0.97
2023-02-14T00:54:53.187Z,0.97
2023-02-14T00:57:58.659Z,1.20
2023-02-14T01:01:04.232Z,1.20
2023-02-14T01:04:09.502Z,1.17
2023-02-14T01:07:14.836Z,1.00
2023-02-14T01:10:21.884Z,1.23
2023-02-14T01:13:27.014Z,1.10
2023-02-14T01:16:33.046Z,1.30
2023-02-14T01:19:38.750Z,1.10
2023-02-14T01:22:45.284Z,1.20
2023-02-14T01:25:55.638Z,1.10
2023-02-14T01:29:01.206Z,1.20
2023-02-14T01:32:07.616Z,1.57
2023-02-14T01:35:13.229Z,1.20
2023-02-14T01:38:18.183Z,1.30
2023-02-14T01:41:26.769Z,1.20
2023-02-14T01:44:57.106Z,1.10
2023-02-14T01:48:02.836Z,1.20
2023-02-14T01:51:08.063Z,1.20
2023-02-14T01:54:14.025Z,1.30
2023-02-14T01:57:22.033Z,1.37
2023-02-14T02:00:45.256Z,1.33
2023-02-14T02:03:52.408Z,1.40
2023-02-14T02:06:58.869Z,1.17
2023-02-14T02:10:08.248Z,1.30
2023-02-14T02:13:19.783Z,1.20
2023-02-14T02:16:37.195Z,1.20
2023-02-14T02:20:09.547Z,1.30
2023-02-14T02:24:03.392Z,1.03
2023-02-14T02:27:34.801Z,1.20
2023-02-14T02:31:01.310Z,1.23
2023-02-14T02:34:38.259Z,1.10
2023-02-14T02:37:52.303Z,1.30
2023-02-14T02:41:02.757Z,1.37
2023-02-14T02:44:17.327Z,1.40
2023-02-14T02:47:28.549Z,1.37
2023-02-14T02:50:53.039Z,1.50
2023-02-14T02:54:04.555Z,1.00
2023-02-14T02:57:16.537Z,1.40
2023-02-14T03:00:24.514Z,1.27
2023-02-14T03:03:48.861Z,1.10
2023-02-14T03:06:54.818Z,1.20
2023-02-14T03:10:03.140Z,1.20
2023-02-14T03:13:42.567Z,1.10
2023-02-14T03:17:00.360Z,1.40
2023-02-14T03:20:16.418Z,1.40
2023-02-14T03:23:25.009Z,1.20
2023-02-14T03:26:36.667Z,1.00
2023-02-14T03:29:48.411Z,1.30
2023-02-14T03:33:01.843Z,1.17
2023-02-14T03:36:10.282Z,1.30
2023-02-14T03:39:19.541Z,1.40
2023-02-14T03:42:28.738Z,1.47
2023-02-14T03:45:36.092Z,1.40
2023-02-14T03:48:42.976Z,1.37
2023-02-14T03:51:51.858Z,1.27
2023-02-14T03:54:59.219Z,1.00
2023-02-14T03:58:10.237Z,1.23
2023-02-14T04:01:18.473Z,1.47
2023-02-14T04:04:25.658Z,1.37
2023-02-14T04:07:30.765Z,1.20
2023-02-14T04:10:36.161Z,1.40
2023-02-14T04:13:45.285Z,1.40
2023-02-14T04:17:08.894Z,1.40
2023-02-14T04:20:14.355Z,1.43
2023-02-14T04:23:19.507Z,1.30
2023-02-14T04:26:24.685Z,1.17
2023-02-14T04:29:31.197Z,1.23
2023-02-14T04:32:36.058Z,1.53
2023-02-14T04:35:41.197Z,1.50
2023-02-14T04:38:46.627Z,1.47
2023-02-14T04:41:51.735Z,1.30
2023-02-14T04:44:58.970Z,1.27
2023-02-14T04:48:05.746Z,1.27
2023-02-14T04:51:11.198Z,1.40
2023-02-14T04:54:17.672Z,1.20
2023-02-14T04:57:22.707Z,1.30
2023-02-14T05:00:29.011Z,1.30
2023-02-14T05:03:34.149Z,1.40
2023-02-14T05:06:41.376Z,1.20
2023-02-14T05:09:46.125Z,1.63
2023-02-14T05:12:51.238Z,1.10
2023-02-14T05:15:58.026Z,1.50
2023-02-14T05:19:02.930Z,1.30
2023-02-14T05:22:07.942Z,1.40
2023-02-14T05:25:13.326Z,1.50
2023-02-14T05:28:28.312Z,1.17
2023-02-14T05:31:34.974Z,1.40
2023-02-14T05:34:40.154Z,1.60
2023-02-14T05:37:45.555Z,1.50
2023-02-14T05:40:50.679Z,1.60
2023-02-14T05:43:55.846Z,1.47
2023-02-14T05:47:02.258Z,1.40
2023-02-14T05:50:09.576Z,1.67
2023-02-14T05:53:15.914Z,1.67
2023-02-14T05:56:20.864Z,1.30
2023-02-14T05:59:26.081Z,1.47
2023-02-14T06:02:32.835Z,1.47
2023-02-14T06:05:38.858Z,1.23
2023-02-14T06:08:44.862Z,1.50
2023-02-14T06:11:49.890Z,1.67
2023-02-14T06:14:55.223Z,1.70
2023-02-14T06:18:01.570Z,1.57
2023-02-14T06:21:07.279Z,1.30
2023-02-14T06:24:12.354Z,1.30
2023-02-14T06:27:17.649Z,1.53
2023-02-14T06:30:23.163Z,1.40
2023-02-14T06:33:30.251Z,1.40
2023-02-14T06:36:38.268Z,1.60
2023-02-14T06:39:43.209Z,1.50
2023-02-14T06:42:48.418Z,1.40
2023-02-14T06:45:53.827Z,1.47
2023-02-14T06:49:00.535Z,1.53
2023-02-14T06:52:07.376Z,1.60
2023-02-14T06:55:13.968Z,1.53
2023-02-14T06:58:19.179Z,1.60
2023-02-14T07:01:24.312Z,1.73
2023-02-14T07:04:31.564Z,1.60
2023-02-14T07:07:36.843Z,1.50
2023-02-14T07:10:42.383Z,1.57
2023-02-14T07:13:49.436Z,1.70
2023-02-14T07:16:54.804Z,1.40
2023-02-14T07:20:01.518Z,1.67
2023-02-14T07:23:06.797Z,1.50
2023-02-14T07:26:18.217Z,1.40
2023-02-14T07:29:23.525Z,1.40
2023-02-14T07:32:28.916Z,1.50
2023-02-14T07:35:37.453Z,1.70
2023-02-14T07:38:42.827Z,1.57
2023-02-14T07:41:47.940Z,1.43
2023-02-14T07:44:57.048Z,2.43
2023-02-14T07:48:03.165Z,1.60
2023-02-14T07:51:11.309Z,1.70
2023-02-14T07:54:16.259Z,1.50
2023-02-14T07:57:21.484Z,1.57
2023-02-14T08:00:26.649Z,1.60
2023-02-14T08:03:31.736Z,1.30
2023-02-14T08:06:38.707Z,1.30
2023-02-14T08:09:43.962Z,1.60
2023-02-14T08:13:01.605Z,1.60
2023-02-14T08:16:07.693Z,1.40
2023-02-14T08:19:13.221Z,1.40
2023-02-14T08:22:19.820Z,1.43
2023-02-14T08:25:25.130Z,1.70
2023-02-14T08:28:32.334Z,1.50
2023-02-14T08:31:37.690Z,1.70
2023-02-14T08:34:42.820Z,1.70
2023-02-14T08:37:49.550Z,1.73
2023-02-14T08:40:54.865Z,1.70
2023-02-14T08:44:00.318Z,2.00
2023-02-14T08:47:05.584Z,1.60
2023-02-14T08:50:15.333Z,1.63
2023-02-14T08:53:22.235Z,1.70
2023-02-14T08:56:27.578Z,1.70
2023-02-14T08:59:33.118Z,1.67
2023-02-14T09:02:38.278Z,1.63
2023-02-14T09:05:43.410Z,1.93
2023-02-14T09:08:50.213Z,1.90
2023-02-14T09:11:56.318Z,1.93
2023-02-14T09:15:01.470Z,2.27
2023-02-14T09:18:06.860Z,2.30
2023-02-14T09:21:14.716Z,2.00
2023-02-14T09:24:21.199Z,1.50
2023-02-14T09:27:26.620Z,1.63
2023-02-14T09:30:31.761Z,1.77
2023-02-14T09:33:37.206Z,1.80
2023-02-14T09:36:59.780Z,1.70
2023-02-14T09:40:07.322Z,1.77
2023-02-14T09:43:19.993Z,2.20
2023-02-14T09:46:26.780Z,2.53
2023-02-14T09:49:34.514Z,2.10
2023-02-14T09:52:39.875Z,2.00
2023-02-14T09:55:57.658Z,1.70
2023-02-14T09:59:08.259Z,2.20
2023-02-14T10:02:32.138Z,1.93
2023-02-14T10:05:39.877Z,1.67
2023-02-14T10:08:57.237Z,1.80
2023-02-14T10:12:06.785Z,1.77
2023-02-14T10:15:17.686Z,1.80
2023-02-14T10:18:23.670Z,2.10
2023-02-14T10:21:32.984Z,2.00
2023-02-14T10:24:40.938Z,2.17
2023-02-14T10:27:48.799Z,2.60
2023-02-14T10:31:02.785Z,2.07
2023-02-14T10:34:16.561Z,2.10
2023-02-14T10:37:31.909Z,2.20
2023-02-14T10:41:11.594Z,2.00
2023-02-14T10:44:28.126Z,2.00
2023-02-14T10:47:42.330Z,2.10
2023-02-14T10:50:57.436Z,1.83
2023-02-14T10:54:13.477Z,1.53
2023-02-14T10:57:23.581Z,2.03
2023-02-14T11:00:34.328Z,1.90
2023-02-14T11:03:54.040Z,1.63
2023-02-14T11:06:59.494Z,2.00
2023-02-14T11:10:04.801Z,2.03
2023-02-14T11:13:33.592Z,1.93
2023-02-14T11:16:40.259Z,1.70
2023-02-14T11:19:58.870Z,2.37
2023-02-14T11:23:20.827Z,1.97
2023-02-14T11:26:27.923Z,2.30
2023-02-14T11:29:35.060Z,2.10
2023-02-14T11:32:42.001Z,2.37
2023-02-14T11:35:53.220Z,2.10
2023-02-14T11:39:01.590Z,1.90
2023-02-14T11:42:07.699Z,2.30
2023-02-14T11:45:31.781Z,2.30
2023-02-14T11:48:39.829Z,2.10
2023-02-14T11:51:48.050Z,1.80
2023-02-14T11:54:53.407Z,1.80
2023-02-14T11:57:59.124Z,1.90
2023-02-14T12:01:04.785Z,1.80
2023-02-14T12:04:19.128Z,1.93
2023-02-14T12:07:27.383Z,1.80
2023-02-14T12:10:33.368Z,1.73
2023-02-14T12:13:38.741Z,2.00
2023-02-14T12:16:47.739Z,1.83
2023-02-14T12:20:00.958Z,1.90
2023-02-14T12:23:10.356Z,1.90
2023-02-14T12:26:19.807Z,2.20
2023-02-14T12:29:28.529Z,2.30
2023-02-14T12:32:33.798Z,2.30
2023-02-14T12:35:48.609Z,1.93
2023-02-14T12:39:01.223Z,2.03
2023-02-14T12:42:14.810Z,1.70
2023-02-14T12:45:24.742Z,1.80
2023-02-14T12:48:40.118Z,2.10
2023-02-14T12:51:51.342Z,1.80
2023-02-14T12:55:07.385Z,1.67
2023-02-14T12:58:24.583Z,2.10
2023-02-14T13:01:40.496Z,1.60
2023-02-14T13:05:01.652Z,1.50
2023-02-14T13:08:25.406Z,1.77
2023-02-14T13:11:37.961Z,1.73
2023-02-14T13:14:53.961Z,1.60
2023-02-14T13:18:03.438Z,1.80
2023-02-14T13:21:11.116Z,1.67
2023-02-14T13:24:21.492Z,1.57
2023-02-14T13:27:29.136Z,1.70
2023-02-14T13:30:37.177Z,1.90
2023-02-14T13:33:44.666Z,1.80
2023-02-14T13:36:50.241Z,1.90
2023-02-14T13:39:59.234Z,1.83
2023-02-14T13:43:04.703Z,2.00
2023-02-14T13:46:11.048Z,2.20
2023-02-14T13:49:34.746Z,2.03
2023-02-14T13:52:47.666Z,1.90
2023-02-14T13:55:55.993Z,1.80
2023-02-14T13:59:06.822Z,2.10
2023-02-14T14:02:42.983Z,1.70
2023-02-14T14:06:02.968Z,1.70
2023-02-14T14:09:11.968Z,1.70
2023-02-14T14:12:42.674Z,1.90
2023-02-14T14:16:21.125Z,2.00
2023-02-14T14:19:39.890Z,2.10
2023-02-14T14:22:49.188Z,1.97
2023-02-14T14:25:54.436Z,2.10
2023-02-14T14:29:01.576Z,1.87
2023-02-14T14:32:10.970Z,2.00
2023-02-14T14:35:21.373Z,2.10
2023-02-14T14:38:26.834Z,2.10
2023-02-14T14:41:32.742Z,1.80
2023-02-14T14:44:44.214Z,2.23
2023-02-14T14:47:50.304Z,1.83
2023-02-14T14:50:55.355Z,2.07
2023-02-14T14:54:03.422Z,1.77
2023-02-14T14:57:09.063Z,2.00
2023-02-14T15:00:27.296Z,1.80
2023-02-14T15:03:32.618Z,2.10
2023-02-14T15:06:38.294Z,2.33
2023-02-14T15:09:44.634Z,2.20
2023-02-14T15:13:06.103Z,2.10
2023-02-14T15:16:16.390Z,2.00
2023-02-14T15:19:26.846Z,2.17
2023-02-14T15:22:36.880Z,2.00
2023-02-14T15:25:46.091Z,2.00
2023-02-14T15:28:57.485Z,2.07
2023-02-14T15:32:04.553Z,2.40
2023-02-14T15:35:11.665Z,2.30
2023-02-14T15:38:17.392Z,2.70
2023-02-14T15:41:24.425Z,2.30
2023-02-14T15:44:29.704Z,2.57
2023-02-14T15:47:36.564Z,2.60
2023-02-14T15:50:47.379Z,2.70
2023-02-14T15:53:54.302Z,3.03
2023-02-14T15:56:59.920Z,2.20
2023-02-14T16:00:11.354Z,2.37
2023-02-14T16:03:23.041Z,2.73
2023-02-14T16:06:36.978Z,2.70
2023-02-14T16:09:42.669Z,2.40
2023-02-14T16:12:57.719Z,2.53
2023-02-14T16:16:04.910Z,2.10
2023-02-14T16:19:33.960Z,2.73
2023-02-14T16:22:39.465Z,2.63
2023-02-14T16:25:44.691Z,2.43
2023-02-14T16:28:49.803Z,2.43
2023-02-14T16:32:14.572Z,2.30
2023-02-14T16:35:23.256Z,2.53
2023-02-14T16:38:28.491Z,2.57
2023-02-14T16:41:36.166Z,2.50
2023-02-14T16:44:40.961Z,2.37
2023-02-14T16:47:48.533Z,2.57
2023-02-14T16:50:55.168Z,1.90
2023-02-14T16:54:02.536Z,2.00
2023-02-14T16:57:07.750Z,1.93
2023-02-14T17:00:16.882Z,1.73
2023-02-14T17:03:22.298Z,1.60
2023-02-14T17:06:29.913Z,2.00
2023-02-14T17:09:39.480Z,1.73
2023-02-14T17:12:46.358Z,2.20
2023-02-14T17:15:52.562Z,1.90
2023-02-14T17:18:57.904Z,1.80
2023-02-14T17:22:04.989Z,1.80
2023-02-14T17:25:11.225Z,1.80
2023-02-14T17:28:16.314Z,1.60
2023-02-14T17:31:21.732Z,1.70
2023-02-14T17:34:27.058Z,1.80
2023-02-14T17:37:34.625Z,1.90
2023-02-14T17:40:40.535Z,1.80
2023-02-14T17:43:45.660Z,1.97
2023-02-14T17:46:50.800Z,1.63
2023-02-14T17:49:56.508Z,1.83
2023-02-14T17:53:03.001Z,2.10
2023-02-14T17:56:09.411Z,1.70
2023-02-14T17:59:14.537Z,1.80
2023-02-14T18:02:19.808Z,1.77
2023-02-14T18:05:25.006Z,1.90
2023-02-14T18:08:35.844Z,1.93
2023-02-14T18:11:42.296Z,1.70
2023-02-14T18:14:47.516Z,1.73
2023-02-14T18:17:52.726Z,2.17
2023-02-14T18:20:59.693Z,1.87
2023-02-14T18:24:06.820Z,1.80
2023-02-14T18:27:15.916Z,1.80
2023-02-14T18:30:21.180Z,2.10
2023-02-14T18:33:26.486Z,2.30
2023-02-14T18:36:35.141Z,3.17
2023-02-14T18:39:47.032Z,3.90
2023-02-14T18:42:52.194Z,4.17
2023-02-14T18:45:57.326Z,4.47
2023-02-14T18:49:02.689Z,4.40
2023-02-14T18:52:07.814Z,5.23
2023-02-14T18:55:16.849Z,4.80
2023-02-14T18:58:22.098Z,5.43
2023-02-14T19:01:30.563Z,5.70
2023-02-14T19:04:35.834Z,5.40
2023-02-14T19:07:41.034Z,5.77
2023-02-14T19:10:47.361Z,5.60
2023-02-14T19:13:53.934Z,6.30
2023-02-14T19:16:58.828Z,7.00
2023-02-14T19:20:08.542Z,7.63
2023-02-14T19:23:15.074Z,7.37
2023-02-14T19:26:23.300Z,7.50
2023-02-14T19:29:28.351Z,6.97
2023-02-14T19:32:33.477Z,7.13
2023-02-14T19:35:39.064Z,6.90
2023-02-14T19:38:45.253Z,7.57
2023-02-14T19:41:52.319Z,8.53
2023-02-14T19:44:57.531Z,8.63
2023-02-14T19:48:03.708Z,8.10
2023-02-14T19:51:09.087Z,8.77
2023-02-14T19:54:15.534Z,8.83
2023-02-14T19:57:22.223Z,8.60
2023-02-14T20:00:27.322Z,8.60
2023-02-14T20:03:32.455Z,9.00
2023-02-14T20:06:38.318Z,7.80
2023-02-14T20:09:44.558Z,7.80
2023-02-14T20:12:54.054Z,8.53
2023-02-14T20:15:59.247Z,8.50
2023-02-14T20:19:05.209Z,8.57
2023-02-14T20:22:10.037Z,7.47
2023-02-14T20:25:15.721Z,7.67
2023-02-14T20:28:24.298Z,7.53
2023-02-14T20:31:30.199Z,7.23
2023-02-14T20:34:36.774Z,8.07
2023-02-14T20:37:42.046Z,7.70
2023-02-14T20:40:47.173Z,8.27
2023-02-14T20:43:53.760Z,8.00
2023-02-14T20:46:59.370Z,8.40
2023-02-14T20:50:04.236Z,8.37
2023-02-14T20:53:12.349Z,8.27
2023-02-14T20:56:18.255Z,7.77
2023-02-14T20:59:27.213Z,8.13
2023-02-14T21:02:32.492Z,8.53
2023-02-14T21:05:37.668Z,8.13
2023-02-14T21:08:43.739Z,8.40
2023-02-14T21:11:49.647Z,8.07
2023-02-14T21:14:56.119Z,8.27
2023-02-14T21:18:01.321Z,8.70
2023-02-14T21:21:07.910Z,8.20
2023-02-14T21:24:14.628Z,8.80
2023-02-14T21:27:19.984Z,8.20
2023-02-14T21:30:30.921Z,8.27
2023-02-14T21:33:36.397Z,7.77
2023-02-14T21:36:41.525Z,8.27
2023-02-14T21:39:46.517Z,8.03
2023-02-14T21:42:52.305Z,8.63
2023-02-14T21:46:02.194Z,7.37
2023-02-14T21:49:25.377Z,8.00
2023-02-14T21:52:31.258Z,7.07
2023-02-14T21:55:38.546Z,7.83
2023-02-14T21:58:43.733Z,8.03
2023-02-14T22:01:50.242Z,8.00
2023-02-14T22:04:55.635Z,7.67
2023-02-14T22:08:00.693Z,7.63
2023-02-14T22:11:07.514Z,7.73
2023-02-14T22:14:14.711Z,8.43
2023-02-14T22:17:21.262Z,7.70
2023-02-14T22:20:26.340Z,7.20
2023-02-14T22:23:31.960Z,7.50
2023-02-14T22:26:39.530Z,8.00
2023-02-14T22:29:44.668Z,7.33
2023-02-14T22:32:51.172Z,7.03
2023-02-14T22:35:56.941Z,7.03
2023-02-14T22:39:02.319Z,6.77
2023-02-14T22:42:08.023Z,6.73
2023-02-14T22:45:13.055Z,6.40
2023-02-14T22:48:20.502Z,7.07
2023-02-14T22:51:27.733Z,5.93
2023-02-14T22:54:32.826Z,5.80
2023-02-14T22:57:37.865Z,5.90
2023-02-14T23:00:43.038Z,6.63
2023-02-14T23:03:50.041Z,6.07
2023-02-14T23:06:55.800Z,6.17
2023-02-14T23:10:00.839Z,5.97
2023-02-14T23:13:23.466Z,5.77
2023-02-14T23:16:45.904Z,5.63
2023-02-14T23:20:09.928Z,5.63
2023-02-14T23:23:15.135Z,5.63
2023-02-14T23:26:21.559Z,5.63
2023-02-14T23:29:26.710Z,5.40
2023-02-14T23:32:31.845Z,5.77
2023-02-14T23:35:39.273Z,5.47
2023-02-14T23:38:44.452Z,5.60
2023-02-14T23:41:49.388Z,5.30
2023-02-14T23:44:54.869Z,4.60
2023-02-14T23:48:03.781Z,5.00
2023-02-14T23:51:10.364Z,5.27
2023-02-14T23:54:16.195Z,4.97
2023-02-14T23:57:21.289Z,5.10
